createdAt,value
2022-09-11T00:01:29.455Z,17.50
2022-09-11T00:04:33.325Z,19.90
2022-09-11T00:07:36.710Z,16.80
2022-09-11T00:10:43.051Z,17.30
2022-09-11T00:13:51.393Z,17.30
2022-09-11T00:16:54.491Z,17.40
2022-09-11T00:19:57.701Z,17.30
2022-09-11T00:23:05.018Z,18.30
2022-09-11T00:26:08.306Z,17.40
2022-09-11T00:29:12.917Z,17.30
2022-09-11T00:32:16.725Z,17.40
2022-09-11T00:35:19.913Z,17.40
2022-09-11T00:38:23.226Z,17.40
2022-09-11T00:41:30.581Z,18.70
2022-09-11T00:45:02.496Z,17.40
2022-09-11T00:48:06.792Z,17.40
2022-09-11T00:51:12.221Z,15.00
2022-09-11T00:54:23.364Z,16.30
2022-09-11T00:57:31.464Z,17.40
2022-09-11T01:00:37.016Z,18.00
2022-09-11T01:03:40.619Z,17.40
2022-09-11T01:06:46.571Z,17.40
2022-09-11T01:09:51.109Z,14.90
2022-09-11T01:13:06.957Z,17.30
2022-09-11T01:16:20.762Z,17.90
2022-09-11T01:19:42.455Z,15.20
2022-09-11T01:23:31.104Z,17.40
2022-09-11T01:26:50.098Z,17.30
2022-09-11T01:30:03.342Z,17.30
2022-09-11T01:33:17.684Z,17.20
2022-09-11T01:36:29.816Z,17.20
2022-09-11T01:39:41.527Z,17.20
2022-09-11T01:42:52.240Z,17.10
2022-09-11T01:46:00.457Z,17.10
2022-09-11T01:49:11.397Z,17.00
2022-09-11T01:52:21.670Z,18.30
2022-09-11T01:55:31.910Z,16.90
2022-09-11T01:58:38.686Z,16.80
2022-09-11T02:01:52.275Z,16.80
2022-09-11T02:05:05.016Z,17.20
2022-09-11T02:08:16.605Z,16.80
2022-09-11T02:11:21.048Z,16.80
2022-09-11T02:14:30.571Z,16.80
2022-09-11T02:17:49.896Z,16.70
2022-09-11T02:20:53.489Z,16.30
2022-09-11T02:23:57.953Z,16.80
2022-09-11T02:27:06.454Z,16.70
2022-09-11T02:30:11.970Z,16.70
2022-09-11T02:33:32.668Z,16.80
2022-09-11T02:36:57.343Z,16.80
2022-09-11T02:40:13.212Z,16.80
2022-09-11T02:43:48.014Z,16.80
2022-09-11T02:47:09.641Z,16.80
2022-09-11T02:50:29.684Z,16.80
2022-09-11T02:53:47.868Z,16.80
2022-09-11T02:57:03.379Z,16.80
2022-09-11T03:00:10.191Z,19.10
2022-09-11T03:03:13.394Z,16.70
2022-09-11T03:06:21.724Z,16.70
2022-09-11T03:09:25.328Z,16.70
2022-09-11T03:12:28.773Z,16.60
2022-09-11T03:15:32.867Z,16.60
2022-09-11T03:18:36.094Z,16.60
2022-09-11T03:21:41.529Z,17.70
2022-09-11T03:24:45.064Z,16.50
2022-09-11T03:27:48.482Z,16.40
2022-09-11T03:30:53.592Z,16.50
2022-09-11T03:33:57.697Z,16.20
2022-09-11T03:37:02.251Z,16.40
2022-09-11T03:40:06.741Z,16.40
2022-09-11T03:43:12.507Z,16.30
2022-09-11T03:46:15.745Z,16.30
2022-09-11T03:49:19.833Z,16.20
2022-09-11T03:52:24.321Z,16.20
2022-09-11T03:55:27.625Z,16.40
2022-09-11T03:58:30.994Z,16.10
2022-09-11T04:01:35.581Z,16.10
2022-09-11T04:04:38.830Z,16.10
2022-09-11T04:07:43.619Z,16.10
2022-09-11T04:10:46.947Z,16.00
2022-09-11T04:13:51.078Z,15.90
2022-09-11T04:16:54.937Z,15.90
2022-09-11T04:19:58.957Z,15.90
2022-09-11T04:23:04.576Z,15.90
2022-09-11T04:26:16.478Z,16.30
2022-09-11T04:29:20.347Z,15.80
2022-09-11T04:32:23.548Z,15.80
2022-09-11T04:35:27.086Z,13.40
2022-09-11T04:38:31.577Z,13.60
2022-09-11T04:41:34.892Z,15.90
2022-09-11T04:44:39.134Z,17.10
2022-09-11T04:47:43.550Z,16.00
2022-09-11T04:50:48.235Z,14.70
2022-09-11T04:53:57.351Z,16.10
2022-09-11T04:57:01.833Z,16.10
2022-09-11T05:00:07.734Z,16.20
2022-09-11T05:03:11.363Z,16.20
2022-09-11T05:06:16.332Z,14.00
2022-09-11T05:09:20.965Z,16.30
2022-09-11T05:12:24.134Z,16.40
2022-09-11T05:15:27.306Z,16.40
2022-09-11T05:18:30.629Z,16.50
2022-09-11T05:21:35.133Z,16.50
2022-09-11T05:24:40.331Z,16.50
2022-09-11T05:27:43.497Z,16.70
2022-09-11T05:30:46.763Z,19.40
2022-09-11T05:33:50.265Z,16.80
2022-09-11T05:36:53.979Z,18.10
2022-09-11T05:39:58.735Z,17.00
2022-09-11T05:43:02.256Z,17.10
2022-09-11T05:46:07.315Z,17.10
2022-09-11T05:49:10.543Z,17.30
2022-09-11T05:52:14.174Z,17.30
2022-09-11T05:55:18.914Z,17.40
2022-09-11T05:58:22.816Z,17.50
2022-09-11T06:01:28.693Z,17.60
2022-09-11T06:04:32.038Z,17.90
2022-09-11T06:07:35.337Z,18.00
2022-09-11T06:10:47.482Z,18.10
2022-09-11T06:13:51.126Z,18.30
2022-09-11T06:16:56.524Z,18.50
2022-09-11T06:20:00.074Z,18.60
2022-09-11T06:23:06.154Z,18.90
2022-09-11T06:26:16.317Z,19.20
2022-09-11T06:29:19.740Z,19.50
2022-09-11T06:32:22.906Z,19.80
2022-09-11T06:35:26.357Z,20.20
2022-09-11T06:38:30.083Z,20.50
2022-09-11T06:41:34.868Z,20.70
2022-09-11T06:44:38.303Z,21.00
2022-09-11T06:47:41.445Z,21.20
2022-09-11T06:50:44.652Z,21.40
2022-09-11T06:53:48.882Z,21.50
2022-09-11T06:56:53.453Z,23.40
2022-09-11T06:59:57.602Z,21.70
2022-09-11T07:03:02.356Z,24.10
2022-09-11T07:06:08.112Z,21.70
2022-09-11T07:09:13.065Z,21.70
2022-09-11T07:12:20.351Z,21.60
2022-09-11T07:15:23.532Z,21.60
2022-09-11T07:18:26.699Z,21.60
2022-09-11T07:21:30.108Z,21.90
2022-09-11T07:24:33.388Z,21.60
2022-09-11T07:27:38.067Z,21.70
2022-09-11T07:30:41.543Z,21.70
2022-09-11T07:33:48.644Z,21.70
2022-09-11T07:36:52.932Z,21.60
2022-09-11T07:39:56.266Z,19.60
2022-09-11T07:43:00.783Z,21.60
2022-09-11T07:46:05.614Z,22.50
2022-09-11T07:49:10.101Z,21.70
2022-09-11T07:52:16.697Z,21.70
2022-09-11T07:55:20.118Z,21.70
2022-09-11T07:58:24.964Z,23.90
2022-09-11T08:01:31.434Z,21.70
2022-09-11T08:04:34.646Z,21.30
2022-09-11T08:07:37.835Z,21.60
2022-09-11T08:10:41.012Z,21.90
2022-09-11T08:13:51.095Z,22.00
2022-09-11T08:16:54.529Z,22.10
2022-09-11T08:19:58.238Z,22.10
2022-09-11T08:23:01.494Z,23.40
2022-09-11T08:26:06.617Z,22.50
2022-09-11T08:29:11.484Z,22.30
2022-09-11T08:32:14.807Z,22.20
2022-09-11T08:35:17.969Z,22.50
2022-09-11T08:38:21.354Z,22.50
2022-09-11T08:41:42.318Z,22.50
2022-09-11T08:44:51.453Z,22.50
2022-09-11T08:47:58.281Z,22.50
2022-09-11T08:51:02.011Z,23.00
2022-09-11T08:54:06.569Z,25.10
2022-09-11T08:57:22.687Z,24.20
2022-09-11T09:00:39.085Z,22.70
2022-09-11T09:04:08.664Z,22.70
2022-09-11T09:07:22.792Z,22.80
2022-09-11T09:10:48.204Z,22.80
2022-09-11T09:14:32.366Z,22.90
2022-09-11T09:17:46.301Z,23.00
2022-09-11T09:21:02.936Z,23.20
2022-09-11T09:24:19.355Z,23.20
2022-09-11T09:27:32.473Z,23.20
2022-09-11T09:30:51.896Z,23.30
2022-09-11T09:34:02.579Z,21.30
2022-09-11T09:37:16.285Z,23.20
2022-09-11T09:40:20.781Z,23.30
2022-09-11T09:43:44.734Z,23.20
2022-09-11T09:47:04.994Z,23.40
2022-09-11T09:50:28.611Z,23.40
2022-09-11T09:53:43.325Z,23.40
2022-09-11T09:57:02.478Z,23.40
2022-09-11T10:00:19.344Z,23.40
2022-09-11T10:03:28.036Z,21.20
2022-09-11T10:06:39.993Z,23.00
2022-09-11T10:09:49.407Z,23.30
2022-09-11T10:13:03.562Z,23.30
2022-09-11T10:16:25.938Z,23.20
2022-09-11T10:19:45.624Z,23.20
2022-09-11T10:22:52.982Z,23.10
2022-09-11T10:25:58.007Z,23.10
2022-09-11T10:29:10.265Z,21.10
2022-09-11T10:32:19.186Z,23.10
2022-09-11T10:35:25.894Z,23.10
2022-09-11T10:38:41.509Z,23.10
2022-09-11T10:41:54.366Z,23.10
2022-09-11T10:45:10.370Z,24.90
2022-09-11T10:48:22.445Z,23.00
2022-09-11T10:51:29.887Z,23.00
2022-09-11T10:55:01.530Z,23.00
2022-09-11T10:58:13.824Z,24.10
2022-09-11T11:01:17.391Z,22.90
2022-09-11T11:04:21.620Z,23.10
2022-09-11T11:07:55.744Z,22.90
2022-09-11T11:11:27.452Z,23.00
2022-09-11T11:14:59.259Z,22.90
2022-09-11T11:18:38.852Z,24.20
2022-09-11T11:21:58.481Z,22.70
2022-09-11T11:25:18.005Z,22.60
2022-09-11T11:28:44.987Z,22.50
2022-09-11T11:32:12.444Z,22.30
2022-09-11T11:35:26.491Z,22.20
2022-09-11T11:38:41.188Z,22.00
2022-09-11T11:41:59.026Z,22.00
2022-09-11T11:45:19.030Z,21.90
2022-09-11T11:48:30.122Z,21.90
2022-09-11T11:51:48.457Z,21.90
2022-09-11T11:55:03.918Z,21.90
2022-09-11T11:58:24.249Z,21.90
2022-09-11T12:01:40.624Z,22.00
2022-09-11T12:04:54.536Z,22.00
2022-09-11T12:07:58.329Z,22.10
2022-09-11T12:11:09.257Z,22.40
2022-09-11T12:14:29.136Z,22.20
2022-09-11T12:17:36.393Z,22.40
2022-09-11T12:20:41.763Z,22.40
2022-09-11T12:24:21.238Z,24.50
2022-09-11T12:28:09.684Z,22.50
2022-09-11T12:31:15.386Z,22.60
2022-09-11T12:34:26.319Z,22.00
2022-09-11T12:37:38.662Z,22.80
2022-09-11T12:40:54.051Z,23.10
2022-09-11T12:43:58.476Z,24.30
2022-09-11T12:47:17.516Z,22.80
2022-09-11T12:50:27.401Z,22.90
2022-09-11T12:53:36.393Z,22.90
2022-09-11T12:56:50.453Z,22.90
2022-09-11T12:59:59.373Z,23.10
2022-09-11T13:03:04.942Z,23.30
2022-09-11T13:06:13.625Z,23.50
2022-09-11T13:09:23.831Z,23.70
2022-09-11T13:12:51.837Z,23.80
2022-09-11T13:15:57.875Z,23.90
2022-09-11T13:19:08.778Z,24.60
2022-09-11T13:22:31.718Z,23.90
2022-09-11T13:25:35.343Z,24.10
2022-09-11T13:28:52.227Z,24.30
2022-09-11T13:31:57.674Z,24.40
2022-09-11T13:35:16.991Z,24.40
2022-09-11T13:38:27.554Z,24.50
2022-09-11T13:41:39.791Z,24.50
2022-09-11T13:44:51.982Z,22.90
2022-09-11T13:47:55.791Z,24.50
2022-09-11T13:51:04.963Z,24.30
2022-09-11T13:54:18.217Z,24.60
2022-09-11T13:57:28.113Z,24.60
2022-09-11T14:00:41.571Z,24.50
2022-09-11T14:03:48.909Z,24.50
2022-09-11T14:06:52.574Z,24.50
2022-09-11T14:10:18.110Z,24.50
2022-09-11T14:13:33.039Z,24.50
2022-09-11T14:16:47.822Z,24.50
2022-09-11T14:20:11.615Z,24.30
2022-09-11T14:23:24.931Z,22.80
2022-09-11T14:26:43.130Z,24.00
2022-09-11T14:29:55.625Z,23.80
2022-09-11T14:33:26.636Z,23.60
2022-09-11T14:36:30.469Z,23.50
2022-09-11T14:39:41.134Z,23.30
2022-09-11T14:42:46.926Z,23.30
2022-09-11T14:45:54.543Z,23.10
2022-09-11T14:48:57.869Z,23.00
2022-09-11T14:52:02.193Z,23.00
2022-09-11T14:55:06.618Z,23.00
2022-09-11T14:58:11.349Z,22.70
2022-09-11T15:01:15.346Z,23.00
2022-09-11T15:04:21.195Z,23.00
2022-09-11T15:07:25.909Z,22.80
2022-09-11T15:10:29.103Z,22.90
2022-09-11T15:13:33.809Z,22.90
2022-09-11T15:16:37.057Z,22.90
2022-09-11T15:19:40.865Z,22.80
2022-09-11T15:22:44.677Z,22.70
2022-09-11T15:25:48.104Z,22.60
2022-09-11T15:28:53.318Z,22.60
2022-09-11T15:31:56.689Z,22.50
2022-09-11T15:35:00.696Z,22.40
2022-09-11T15:38:05.584Z,21.90
2022-09-11T15:41:12.994Z,22.20
2022-09-11T15:44:23.377Z,22.20
2022-09-11T15:47:32.045Z,21.90
2022-09-11T15:50:35.277Z,21.80
2022-09-11T15:53:55.516Z,21.70
2022-09-11T15:57:00.548Z,21.50
2022-09-11T16:00:06.713Z,21.60
2022-09-11T16:03:11.904Z,23.20
2022-09-11T16:06:22.548Z,21.50
2022-09-11T16:09:51.467Z,21.40
2022-09-11T16:12:59.085Z,21.30
2022-09-11T16:16:10.502Z,21.20
2022-09-11T16:19:22.933Z,21.20
2022-09-11T16:22:31.308Z,21.10
2022-09-11T16:25:40.311Z,21.00
2022-09-11T16:28:43.579Z,20.90
2022-09-11T16:31:49.535Z,20.80
2022-09-11T16:34:53.584Z,18.70
2022-09-11T16:37:56.725Z,20.70
2022-09-11T16:41:21.955Z,21.60
2022-09-11T16:44:53.727Z,20.50
2022-09-11T16:48:02.879Z,20.40
2022-09-11T16:51:07.264Z,20.30
2022-09-11T16:54:10.624Z,20.20
2022-09-11T16:57:27.470Z,20.10
2022-09-11T17:00:31.793Z,20.10
2022-09-11T17:03:41.235Z,20.00
2022-09-11T17:06:44.846Z,20.00
2022-09-11T17:09:48.777Z,19.90
2022-09-11T17:12:52.406Z,19.80
2022-09-11T17:16:01.723Z,19.70
2022-09-11T17:19:07.148Z,17.30
2022-09-11T17:22:10.766Z,19.60
2022-09-11T17:25:14.602Z,19.60
2022-09-11T17:28:20.314Z,19.50
2022-09-11T17:31:23.667Z,19.40
2022-09-11T17:34:29.825Z,21.30
2022-09-11T17:37:33.062Z,19.30
2022-09-11T17:40:38.975Z,19.20
2022-09-11T17:43:43.103Z,19.20
2022-09-11T17:46:46.432Z,19.00
2022-09-11T17:49:51.173Z,19.00
2022-09-11T17:52:54.851Z,18.90
2022-09-11T17:56:02.514Z,18.90
2022-09-11T17:59:05.630Z,18.80
2022-09-11T18:02:11.875Z,18.70
2022-09-11T18:05:18.389Z,18.60
2022-09-11T18:08:22.942Z,18.60
2022-09-11T18:11:26.982Z,19.10
2022-09-11T18:14:31.144Z,20.20
2022-09-11T18:17:34.492Z,18.50
2022-09-11T18:20:39.181Z,20.40
2022-09-11T18:23:46.241Z,18.60
2022-09-11T18:27:00.540Z,18.30
2022-09-11T18:30:07.303Z,18.30
2022-09-11T18:33:16.539Z,19.60
2022-09-11T18:36:23.408Z,18.20
2022-09-11T18:39:26.869Z,18.10
2022-09-11T18:42:30.332Z,18.10
2022-09-11T18:45:36.805Z,18.10
2022-09-11T18:48:42.961Z,17.60
2022-09-11T18:51:47.912Z,17.50
2022-09-11T18:54:51.344Z,18.00
2022-09-11T18:57:54.460Z,17.90
2022-09-11T19:01:00.322Z,19.30
2022-09-11T19:04:10.103Z,17.80
2022-09-11T19:07:17.847Z,17.70
2022-09-11T19:10:21.467Z,17.70
2022-09-11T19:13:27.100Z,17.60
2022-09-11T19:16:31.223Z,17.60
2022-09-11T19:19:35.552Z,18.80
2022-09-11T19:22:40.421Z,17.40
2022-09-11T19:25:43.805Z,17.40
2022-09-11T19:28:49.236Z,16.10
2022-09-11T19:31:54.657Z,16.90
2022-09-11T19:34:58.012Z,17.20
2022-09-11T19:38:02.804Z,15.60
2022-09-11T19:41:07.648Z,17.10
2022-09-11T19:44:14.864Z,17.10
2022-09-11T19:47:19.446Z,17.10
2022-09-11T19:50:22.927Z,17.00
2022-09-11T19:53:30.127Z,17.90
2022-09-11T19:56:36.500Z,16.70
2022-09-11T19:59:39.732Z,16.90
2022-09-11T20:02:45.365Z,16.90
2022-09-11T20:05:49.815Z,18.90
2022-09-11T20:09:08.027Z,16.90
2022-09-11T20:12:18.908Z,18.90
2022-09-11T20:15:22.198Z,16.80
2022-09-11T20:18:25.459Z,18.20
2022-09-11T20:21:28.669Z,16.80
2022-09-11T20:24:33.401Z,16.80
2022-09-11T20:27:36.523Z,18.20
2022-09-11T20:30:39.926Z,16.70
2022-09-11T20:33:44.312Z,16.70
2022-09-11T20:36:48.280Z,16.70
2022-09-11T20:39:53.034Z,16.60
2022-09-11T20:42:56.407Z,16.60
2022-09-11T20:46:00.531Z,16.50
2022-09-11T20:49:05.723Z,16.40
2022-09-11T20:52:11.500Z,16.50
2022-09-11T20:55:16.225Z,17.80
2022-09-11T20:58:19.613Z,16.30
2022-09-11T21:01:26.302Z,16.40
2022-09-11T21:04:29.662Z,16.20
2022-09-11T21:07:33.236Z,16.70
2022-09-11T21:10:38.392Z,16.60
2022-09-11T21:13:43.385Z,16.10
2022-09-11T21:16:46.487Z,16.10
2022-09-11T21:19:52.230Z,16.10
2022-09-11T21:22:57.876Z,16.00
2022-09-11T21:26:03.149Z,16.00
2022-09-11T21:29:09.314Z,15.90
2022-09-11T21:32:12.660Z,15.90
2022-09-11T21:35:21.377Z,15.90
2022-09-11T21:38:29.461Z,15.90
2022-09-11T21:44:37.499Z,13.60
2022-09-11T21:50:44.334Z,15.50
2022-09-11T21:53:49.975Z,15.90
2022-09-11T21:56:54.442Z,16.90
2022-09-11T21:59:58.111Z,15.90
2022-09-11T22:03:01.653Z,15.90
2022-09-11T22:06:07.576Z,15.90
2022-09-11T22:09:11.236Z,15.90
2022-09-11T22:12:16.426Z,15.90
2022-09-11T22:15:19.749Z,15.90
2022-09-11T22:18:23.081Z,15.80
2022-09-11T22:21:26.321Z,15.80
2022-09-11T22:24:31.434Z,15.90
2022-09-11T22:27:36.427Z,15.80
2022-09-11T22:30:43.032Z,15.70
2022-09-11T22:33:46.833Z,15.70
2022-09-11T22:36:50.333Z,16.20
2022-09-11T22:39:53.609Z,15.60
2022-09-11T22:42:58.112Z,17.40
2022-09-11T22:46:01.625Z,17.80
2022-09-11T22:49:05.018Z,15.60
2022-09-11T22:52:08.419Z,15.60
2022-09-11T22:55:11.906Z,15.50
2022-09-11T22:58:17.431Z,15.60
2022-09-11T23:01:22.671Z,15.50
2022-09-11T23:04:26.009Z,15.50
2022-09-11T23:07:28.252Z,15.60
2022-09-11T23:10:31.405Z,15.60
2022-09-11T23:13:37.658Z,15.50
2022-09-11T23:16:40.981Z,15.00
2022-09-11T23:19:44.303Z,15.50
2022-09-11T23:22:47.594Z,15.40
2022-09-11T23:25:51.596Z,15.40
2022-09-11T23:28:56.178Z,17.90
2022-09-11T23:31:59.665Z,15.30
2022-09-11T23:35:02.884Z,15.20
2022-09-11T23:38:06.145Z,15.20
2022-09-11T23:41:09.404Z,15.80
2022-09-11T23:44:13.937Z,15.20
2022-09-11T23:47:17.123Z,12.50
2022-09-11T23:50:20.727Z,15.10
2022-09-11T23:53:23.993Z,15.20
2022-09-11T23:56:27.370Z,14.20
2022-09-11T23:59:35.835Z,15.10
